createdAt,value
2019-04-05T00:04:55.205Z,4.60
2019-04-05T00:10:59.658Z,4.60
2019-04-05T00:17:04.368Z,4.60
2019-04-05T00:23:08.902Z,4.50
2019-04-05T00:29:13.370Z,4.40
2019-04-05T00:35:17.725Z,4.40
2019-04-05T00:41:22.141Z,4.40
2019-04-05T00:47:26.509Z,4.40
2019-04-05T00:53:30.932Z,4.30
2019-04-05T00:59:35.297Z,4.30
2019-04-05T01:05:39.669Z,4.20
2019-04-05T01:11:44.293Z,4.00
2019-04-05T01:17:49.171Z,4.00
2019-04-05T01:23:56.467Z,4.00
2019-04-05T01:30:01.073Z,3.90
2019-04-05T01:36:05.411Z,3.90
2019-04-05T01:42:09.765Z,3.90
2019-04-05T01:48:14.083Z,3.90
2019-04-05T01:54:18.399Z,3.80
2019-04-05T02:00:22.892Z,3.70
2019-04-05T02:06:27.542Z,3.60
2019-04-05T02:12:31.859Z,3.60
2019-04-05T02:18:36.296Z,3.50
2019-04-05T02:24:40.601Z,3.50
2019-04-05T02:30:44.991Z,3.50
2019-04-05T02:36:49.437Z,3.50
2019-04-05T02:42:55.464Z,3.40
2019-04-05T02:49:02.846Z,3.40
2019-04-05T02:55:07.671Z,3.40
2019-04-05T03:01:12.112Z,3.30
2019-04-05T03:07:16.713Z,3.20
2019-04-05T03:13:22.098Z,3.30
2019-04-05T03:19:29.890Z,3.20
2019-04-05T03:25:34.398Z,3.10
2019-04-05T03:31:39.188Z,3.20
2019-04-05T03:37:43.494Z,3.10
2019-04-05T03:43:48.032Z,3.10
2019-04-05T03:49:52.211Z,3.00
2019-04-05T03:55:56.909Z,2.90
2019-04-05T04:02:01.364Z,2.90
2019-04-05T04:08:05.844Z,2.90
2019-04-05T04:14:10.949Z,2.90
2019-04-05T04:20:39.088Z,2.80
2019-04-05T04:26:44.045Z,2.80
2019-04-05T04:32:48.649Z,2.70
2019-04-05T04:38:52.870Z,2.70
2019-04-05T04:45:11.039Z,2.60
2019-04-05T04:51:03.557Z,2.50
2019-04-05T04:57:07.972Z,2.60
2019-04-05T05:03:12.368Z,2.60
2019-04-05T05:09:16.763Z,2.60
2019-04-05T05:15:21.163Z,2.60
2019-04-05T05:21:25.946Z,2.60
2019-04-05T05:27:30.746Z,2.50
2019-04-05T05:33:35.165Z,2.60
2019-04-05T05:39:39.352Z,2.60
2019-04-05T05:45:43.516Z,2.70
2019-04-05T05:51:49.365Z,2.80
2019-04-05T05:57:54.950Z,2.90
2019-04-05T06:03:59.878Z,3.10
2019-04-05T06:10:04.225Z,3.50
2019-04-05T06:16:08.514Z,4.00
2019-04-05T06:22:12.755Z,4.40
2019-04-05T06:28:16.925Z,4.80
2019-04-05T06:34:21.096Z,5.10
2019-04-05T06:40:25.545Z,5.40
2019-04-05T06:46:29.768Z,5.90
2019-04-05T06:52:33.984Z,6.10
2019-04-05T06:58:38.358Z,6.50
2019-04-05T07:04:42.696Z,7.00
2019-04-05T07:10:46.889Z,7.40
2019-04-05T07:16:51.159Z,7.90
2019-04-05T07:22:55.363Z,8.30
2019-04-05T07:28:59.642Z,8.80
2019-04-05T07:35:03.816Z,9.00
2019-04-05T07:41:08.224Z,9.30
2019-04-05T07:47:12.411Z,9.90
2019-04-05T07:53:16.723Z,9.90
2019-04-05T07:59:21.511Z,10.20
2019-04-05T08:05:25.698Z,10.30
2019-04-05T08:11:30.796Z,11.00
2019-04-05T08:17:34.978Z,11.20
2019-04-05T08:23:39.183Z,11.10
2019-04-05T08:29:43.442Z,11.30
2019-04-05T08:35:47.618Z,11.50
2019-04-05T08:41:51.967Z,11.60
2019-04-05T08:47:56.231Z,11.50
2019-04-05T08:54:00.481Z,12.30
2019-04-05T09:00:05.680Z,12.00
2019-04-05T09:06:10.022Z,12.30
2019-04-05T09:12:14.210Z,12.50
2019-04-05T09:18:18.568Z,12.50
2019-04-05T09:24:22.756Z,12.90
2019-04-05T09:30:27.024Z,13.20
2019-04-05T09:36:31.230Z,13.10
2019-04-05T09:42:35.431Z,13.00
2019-04-05T09:48:39.936Z,12.60
2019-04-05T09:54:44.284Z,13.20
2019-04-05T10:00:48.484Z,12.90
2019-04-05T10:06:52.828Z,13.00
2019-04-05T10:12:57.221Z,13.40
2019-04-05T10:19:01.462Z,13.50
2019-04-05T10:25:05.931Z,13.10
2019-04-05T10:31:10.128Z,12.90
2019-04-05T10:37:14.389Z,13.40
2019-04-05T10:43:18.650Z,13.40
2019-04-05T10:49:22.973Z,13.60
2019-04-05T10:55:27.177Z,12.90
2019-04-05T11:01:31.537Z,13.00
2019-04-05T11:07:35.737Z,13.10
2019-04-05T11:13:40.049Z,13.20
2019-04-05T11:19:44.234Z,12.60
2019-04-05T11:25:48.488Z,12.80
2019-04-05T11:31:57.204Z,12.60
2019-04-05T11:37:58.667Z,12.80
2019-04-05T11:44:03.734Z,13.00
2019-04-05T11:50:10.716Z,13.00
2019-04-05T11:56:17.468Z,13.40
2019-04-05T12:02:30.573Z,13.70
2019-04-05T12:08:34.887Z,13.70
2019-04-05T12:14:39.118Z,13.60
2019-04-05T12:20:50.912Z,13.50
2019-04-05T12:26:49.465Z,13.60
2019-04-05T12:32:53.697Z,13.80
2019-04-05T12:38:57.971Z,13.60
2019-04-05T12:45:02.254Z,13.30
2019-04-05T12:51:06.515Z,13.60
2019-04-05T12:57:10.697Z,13.70
2019-04-05T13:03:15.004Z,13.80
2019-04-05T13:09:19.209Z,13.70
2019-04-05T13:15:23.552Z,14.00
2019-04-05T13:21:27.866Z,14.10
2019-04-05T13:27:33.123Z,14.20
2019-04-05T13:33:37.437Z,14.00
2019-04-05T13:39:41.616Z,13.90
2019-04-05T13:45:45.825Z,14.20
2019-04-05T13:51:50.064Z,14.40
2019-04-05T13:57:54.264Z,14.20
2019-04-05T14:04:01.670Z,14.20
2019-04-05T14:10:10.764Z,14.10
2019-04-05T14:16:13.115Z,14.20
2019-04-05T14:22:17.419Z,14.00
2019-04-05T14:28:21.671Z,14.10
2019-04-05T14:34:25.915Z,14.00
2019-04-05T14:40:32.933Z,14.00
2019-04-05T14:46:38.334Z,14.30
2019-04-05T14:52:42.448Z,14.00
2019-04-05T14:58:46.644Z,14.10
2019-04-05T15:04:51.164Z,14.20
2019-04-05T15:10:56.921Z,14.20
2019-04-05T15:17:01.274Z,14.40
2019-04-05T15:23:05.529Z,14.30
2019-04-05T15:29:09.899Z,14.30
2019-04-05T15:35:14.592Z,14.20
2019-04-05T15:41:18.905Z,14.20
2019-04-05T15:47:23.851Z,14.00
2019-04-05T15:53:32.099Z,14.10
2019-04-05T15:59:37.024Z,14.20
2019-04-05T16:05:41.395Z,14.00
2019-04-05T16:11:45.575Z,14.30
2019-04-05T16:17:49.953Z,14.30
2019-04-05T16:23:54.191Z,14.20
2019-04-05T16:30:01.095Z,14.10
2019-04-05T16:36:05.534Z,14.00
2019-04-05T16:42:10.330Z,13.90
2019-04-05T16:48:14.701Z,13.80
2019-04-05T16:54:19.315Z,13.80
2019-04-05T17:00:23.814Z,13.50
2019-04-05T17:06:28.177Z,13.50
2019-04-05T17:12:32.434Z,13.50
2019-04-05T17:18:36.923Z,13.30
2019-04-05T17:24:41.146Z,13.20
2019-04-05T17:30:46.090Z,13.10
2019-04-05T17:36:50.366Z,13.00
2019-04-05T17:42:54.876Z,13.00
2019-04-05T17:48:59.166Z,12.80
2019-04-05T17:55:04.136Z,12.70
2019-04-05T18:01:08.505Z,12.60
2019-04-05T18:07:12.810Z,12.40
2019-04-05T18:13:17.028Z,12.20
2019-04-05T18:19:21.235Z,12.10
2019-04-05T18:25:25.610Z,12.00
2019-04-05T18:31:30.316Z,11.90
2019-04-05T18:37:35.334Z,11.70
2019-04-05T18:43:39.779Z,11.50
2019-04-05T18:49:44.091Z,11.30
2019-04-05T18:55:48.376Z,11.10
2019-04-05T19:01:52.655Z,10.90
2019-04-05T19:07:57.061Z,10.80
2019-04-05T19:14:01.677Z,10.70
2019-04-05T19:20:06.627Z,10.60
2019-04-05T19:26:11.812Z,10.50
2019-04-05T19:50:37.029Z,10.30
2019-04-05T19:56:41.382Z,10.10
2019-04-05T20:02:45.833Z,10.10
2019-04-05T20:08:50.129Z,10.10
2019-04-05T20:14:54.477Z,10.00
2019-04-05T20:20:58.882Z,10.00
2019-04-05T20:27:03.104Z,10.00
2019-04-05T20:33:10.029Z,9.90
2019-04-05T20:39:14.215Z,9.90
2019-04-05T20:45:18.471Z,9.90
2019-04-05T20:51:22.954Z,9.90
2019-04-05T20:57:27.157Z,9.90
2019-04-05T21:03:31.344Z,9.90
2019-04-05T21:09:35.617Z,9.90
2019-04-05T21:15:39.832Z,9.90
2019-04-05T21:21:44.172Z,9.90
2019-04-05T21:27:48.546Z,9.80
2019-04-05T21:33:52.876Z,9.80
2019-04-05T21:39:57.248Z,9.80
2019-04-05T21:46:01.786Z,9.70
2019-04-05T21:52:06.421Z,9.70
2019-04-05T21:58:10.769Z,9.70
2019-04-05T22:04:15.105Z,9.60
2019-04-05T22:10:19.437Z,9.60
2019-04-05T22:16:23.885Z,9.60
2019-04-05T22:22:28.409Z,9.50
2019-04-05T22:28:32.774Z,9.50
2019-04-05T22:34:37.191Z,9.50
2019-04-05T22:40:41.777Z,9.40
2019-04-05T22:46:46.337Z,9.40
2019-04-05T22:52:50.681Z,9.40
2019-04-05T22:58:55.175Z,9.30
2019-04-05T23:05:00.912Z,9.30
2019-04-05T23:11:05.714Z,9.20
2019-04-05T23:17:10.081Z,9.20
2019-04-05T23:23:14.544Z,9.10
2019-04-05T23:29:19.142Z,9.10
2019-04-05T23:35:23.780Z,9.00
2019-04-05T23:41:28.413Z,8.90
2019-04-05T23:47:33.064Z,8.80
2019-04-05T23:53:37.422Z,8.60
2019-04-05T23:59:41.744Z,8.50
